GCXO/TFN METAR and TAF weather

Enter ICAO airport designator
Station Type Date Time Source
GCXO METAR 2019/05/19 07:00 UTC NOAA

GCXO 190700Z 32012KT 280V350 9999 -DZ FEW002 BKN007 14/13 Q1018 NOSIG


Station Type Date Time Source
GCXO Decoded METAR 2019/05/19 07:00 UTC NOAA

Tenerife / Los Rodeos, Spain (GCXO) 28-28N 016-19W 617M
May 19, 2019 - 03:00 AM EDT / 2019.05.19 0700 UTC
Wind: from the NW (320 degrees) at 14 MPH (12 KT) (direction variable):0
Visibility: greater than 7 mile(s):0
Sky conditions: mostly cloudy
Weather: light drizzle
Temperature: 57 F (14 C)
Dew Point: 55 F (13 C)
Relative Humidity: 93%
Pressure (altimeter): 30.06 in. Hg (1018 hPa)
ob: GCXO 190700Z 32012KT 280V350 9999 -DZ FEW002 BKN007 14/13 Q1018 NOSIG
cycle: 7

Station Type Date Time Source
GCXO TAF 2019/05/19 03:27 UTC NOAA

TAF GCXO 190200Z 1903/2003 30015KT 9999 BKN012 TX20/1914Z TN13/1906Z PROB40
TEMPO 1903/1907 4500 BCFG BKN005 PROB30
TEMPO 1903/1906 1500 BCFG PROB40
TEMPO 1913/1921 32020G30KT
TEMPO 1921/2003 1500 DZ BCFG BKN002

Example: see airport list